sensor_id;sensor_type;location;lat;lon;timestamp;temperature;humidity
71801;HTU21D;59647;55.838;37.292;2023-05-07T00:00:42;1.94;69.28
71801;HTU21D;59647;55.838;37.292;2023-05-07T00:03:08;1.93;67.51
71801;HTU21D;59647;55.838;37.292;2023-05-07T00:05:34;1.94;65.50
71801;HTU21D;59647;55.838;37.292;2023-05-07T00:08:00;1.90;69.19
71801;HTU21D;59647;55.838;37.292;2023-05-07T00:10:26;1.88;65.72
71801;HTU21D;59647;55.838;37.292;2023-05-07T00:12:51;1.85;67.64
71801;HTU21D;59647;55.838;37.292;2023-05-07T00:15:17;1.85;65.99
71801;HTU21D;59647;55.838;37.292;2023-05-07T00:17:43;1.84;67.62
71801;HTU21D;59647;55.838;37.292;2023-05-07T00:20:09;1.81;66.05
71801;HTU21D;59647;55.838;37.292;2023-05-07T00:22:37;1.79;66.98
71801;HTU21D;59647;55.838;37.292;2023-05-07T00:25:03;1.79;64.92
71801;HTU21D;59647;55.838;37.292;2023-05-07T00:27:32;1.73;70.52
71801;HTU21D;59647;55.838;37.292;2023-05-07T00:29:58;1.68;73.20
71801;HTU21D;59647;55.838;37.292;2023-05-07T00:32:24;1.67;69.60
71801;HTU21D;59647;55.838;37.292;2023-05-07T00:34:50;1.68;68.20
71801;HTU21D;59647;55.838;37.292;2023-05-07T00:37:16;1.71;68.96
71801;HTU21D;59647;55.838;37.292;2023-05-07T00:39:42;1.65;73.04
71801;HTU21D;59647;55.838;37.292;2023-05-07T00:42:08;1.65;69.78
71801;HTU21D;59647;55.838;37.292;2023-05-07T00:44:34;1.64;71.80
71801;HTU21D;59647;55.838;37.292;2023-05-07T00:47:02;1.62;71.77
71801;HTU21D;59647;55.838;37.292;2023-05-07T00:49:39;1.64;69.71
71801;HTU21D;59647;55.838;37.292;2023-05-07T00:52:07;1.61;68.54
71801;HTU21D;59647;55.838;37.292;2023-05-07T00:54:35;1.57;71.58
71801;HTU21D;59647;55.838;37.292;2023-05-07T00:57:02;1.57;71.13
71801;HTU21D;59647;55.838;37.292;2023-05-07T00:59:31;1.56;69.17
71801;HTU21D;59647;55.838;37.292;2023-05-07T01:01:57;1.51;73.64
71801;HTU21D;59647;55.838;37.292;2023-05-07T01:04:23;1.52;66.94
71801;HTU21D;59647;55.838;37.292;2023-05-07T01:06:49;1.53;69.13
71801;HTU21D;59647;55.838;37.292;2023-05-07T01:09:16;1.46;73.31
71801;HTU21D;59647;55.838;37.292;2023-05-07T01:11:43;1.42;71.68
71801;HTU21D;59647;55.838;37.292;2023-05-07T01:14:09;1.40;69.68
71801;HTU21D;59647;55.838;37.292;2023-05-07T01:16:36;1.38;75.02
71801;HTU21D;59647;55.838;37.292;2023-05-07T01:19:03;1.32;75.96
71801;HTU21D;59647;55.838;37.292;2023-05-07T01:21:33;1.32;73.48
71801;HTU21D;59647;55.838;37.292;2023-05-07T01:24:01;1.29;74.50
71801;HTU21D;59647;55.838;37.292;2023-05-07T01:26:30;1.26;76.27
71801;HTU21D;59647;55.838;37.292;2023-05-07T01:28:56;1.28;71.70
71801;HTU21D;59647;55.838;37.292;2023-05-07T01:31:23;1.32;71.71
71801;HTU21D;59647;55.838;37.292;2023-05-07T01:33:50;1.32;73.14
71801;HTU21D;59647;55.838;37.292;2023-05-07T01:36:18;1.29;71.61
71801;HTU21D;59647;55.838;37.292;2023-05-07T01:38:47;1.31;70.66
71801;HTU21D;59647;55.838;37.292;2023-05-07T01:41:13;1.32;70.29
71801;HTU21D;59647;55.838;37.292;2023-05-07T01:43:40;1.29;72.63
71801;HTU21D;59647;55.838;37.292;2023-05-07T01:46:08;1.31;70.15
71801;HTU21D;59647;55.838;37.292;2023-05-07T01:48:35;1.31;71.90
71801;HTU21D;59647;55.838;37.292;2023-05-07T01:51:02;1.28;72.99
71801;HTU21D;59647;55.838;37.292;2023-05-07T01:53:28;1.27;72.32
71801;HTU21D;59647;55.838;37.292;2023-05-07T01:55:54;1.26;73.57
71801;HTU21D;59647;55.838;37.292;2023-05-07T01:58:21;1.24;74.24
71801;HTU21D;59647;55.838;37.292;2023-05-07T02:00:47;1.22;74.91
71801;HTU21D;59647;55.838;37.292;2023-05-07T02:03:13;1.23;74.92
71801;HTU21D;59647;55.838;37.292;2023-05-07T02:05:51;1.23;73.72
71801;HTU21D;59647;55.838;37.292;2023-05-07T02:08:35;1.18;76.60
71801;HTU21D;59647;55.838;37.292;2023-05-07T02:11:01;1.19;75.21
71801;HTU21D;59647;55.838;37.292;2023-05-07T02:13:31;1.21;74.83
71801;HTU21D;59647;55.838;37.292;2023-05-07T02:15:58;1.22;75.43
71801;HTU21D;59647;55.838;37.292;2023-05-07T02:18:25;1.27;72.61
71801;HTU21D;59647;55.838;37.292;2023-05-07T02:20:51;1.28;72.63
71801;HTU21D;59647;55.838;37.292;2023-05-07T02:23:17;1.33;76.22
71801;HTU21D;59647;55.838;37.292;2023-05-07T02:25:43;1.36;73.69
71801;HTU21D;59647;55.838;37.292;2023-05-07T02:28:09;1.38;73.76
71801;HTU21D;59647;55.838;37.292;2023-05-07T02:30:58;1.41;71.45
71801;HTU21D;59647;55.838;37.292;2023-05-07T02:33:26;1.41;71.72
71801;HTU21D;59647;55.838;37.292;2023-05-07T02:35:53;1.43;72.40
71801;HTU21D;59647;55.838;37.292;2023-05-07T02:38:19;1.47;72.16
71801;HTU21D;59647;55.838;37.292;2023-05-07T02:40:44;1.50;72.41
71801;HTU21D;59647;55.838;37.292;2023-05-07T02:43:10;1.51;72.84
71801;HTU21D;59647;55.838;37.292;2023-05-07T02:45:37;1.48;75.95
71801;HTU21D;59647;55.838;37.292;2023-05-07T02:48:05;1.55;72.53
71801;HTU21D;59647;55.838;37.292;2023-05-07T02:50:32;1.56;72.51
71801;HTU21D;59647;55.838;37.292;2023-05-07T02:52:58;1.58;73.22
71801;HTU21D;59647;55.838;37.292;2023-05-07T02:55:25;1.60;74.47
71801;HTU21D;59647;55.838;37.292;2023-05-07T02:57:51;1.60;75.97
71801;HTU21D;59647;55.838;37.292;2023-05-07T03:00:18;1.61;73.82
71801;HTU21D;59647;55.838;37.292;2023-05-07T03:03:10;1.63;77.19
71801;HTU21D;59647;55.838;37.292;2023-05-07T03:05:37;1.69;73.22
71801;HTU21D;59647;55.838;37.292;2023-05-07T03:08:03;1.70;71.68
71801;HTU21D;59647;55.838;37.292;2023-05-07T03:10:30;1.76;72.45
71801;HTU21D;59647;55.838;37.292;2023-05-07T03:12:56;1.80;75.09
71801;HTU21D;59647;55.838;37.292;2023-05-07T03:15:22;1.84;74.47
71801;HTU21D;59647;55.838;37.292;2023-05-07T03:17:48;1.86;73.97
71801;HTU21D;59647;55.838;37.292;2023-05-07T03:20:14;1.91;74.07
71801;HTU21D;59647;55.838;37.292;2023-05-07T03:22:41;1.96;74.30
71801;HTU21D;59647;55.838;37.292;2023-05-07T03:25:08;1.99;74.39
71801;HTU21D;59647;55.838;37.292;2023-05-07T03:27:36;2.10;73.57
71801;HTU21D;59647;55.838;37.292;2023-05-07T03:30:03;2.14;72.16
71801;HTU21D;59647;55.838;37.292;2023-05-07T03:32:32;2.16;72.76
71801;HTU21D;59647;55.838;37.292;2023-05-07T03:34:57;2.23;73.44
71801;HTU21D;59647;55.838;37.292;2023-05-07T03:37:24;2.28;73.79
71801;HTU21D;59647;55.838;37.292;2023-05-07T03:39:50;2.31;73.61
71801;HTU21D;59647;55.838;37.292;2023-05-07T03:42:17;2.41;71.84
71801;HTU21D;59647;55.838;37.292;2023-05-07T03:44:43;2.47;72.59
71801;HTU21D;59647;55.838;37.292;2023-05-07T03:47:09;2.55;73.89
71801;HTU21D;59647;55.838;37.292;2023-05-07T03:49:36;2.55;74.02
71801;HTU21D;59647;55.838;37.292;2023-05-07T03:52:02;2.65;71.55
71801;HTU21D;59647;55.838;37.292;2023-05-07T03:54:31;2.81;72.63
71801;HTU21D;59647;55.838;37.292;2023-05-07T03:56:57;2.91;69.71
71801;HTU21D;59647;55.838;37.292;2023-05-07T03:59:23;2.99;71.58
71801;HTU21D;59647;55.838;37.292;2023-05-07T04:01:50;3.14;67.45
71801;HTU21D;59647;55.838;37.292;2023-05-07T04:04:19;3.24;67.35
71801;HTU21D;59647;55.838;37.292;2023-05-07T04:06:45;3.35;68.36
71801;HTU21D;59647;55.838;37.292;2023-05-07T04:09:12;3.45;68.13
71801;HTU21D;59647;55.838;37.292;2023-05-07T04:11:38;3.57;66.11
71801;HTU21D;59647;55.838;37.292;2023-05-07T04:14:07;3.63;67.33
71801;HTU21D;59647;55.838;37.292;2023-05-07T04:16:34;3.74;67.62
71801;HTU21D;59647;55.838;37.292;2023-05-07T04:19:01;3.84;67.36
71801;HTU21D;59647;55.838;37.292;2023-05-07T04:21:28;3.92;66.12
71801;HTU21D;59647;55.838;37.292;2023-05-07T04:23:56;4.02;66.56
71801;HTU21D;59647;55.838;37.292;2023-05-07T04:26:21;4.18;62.60
71801;HTU21D;59647;55.838;37.292;2023-05-07T04:28:49;4.20;65.21
71801;HTU21D;59647;55.838;37.292;2023-05-07T04:31:15;4.30;63.96
71801;HTU21D;59647;55.838;37.292;2023-05-07T04:33:41;4.38;64.98
71801;HTU21D;59647;55.838;37.292;2023-05-07T04:36:10;4.54;63.91
71801;HTU21D;59647;55.838;37.292;2023-05-07T04:38:43;4.72;64.33
71801;HTU21D;59647;55.838;37.292;2023-05-07T04:41:12;4.81;62.76
71801;HTU21D;59647;55.838;37.292;2023-05-07T04:43:40;4.90;62.18
71801;HTU21D;59647;55.838;37.292;2023-05-07T04:46:07;4.91;61.31
71801;HTU21D;59647;55.838;37.292;2023-05-07T04:48:34;5.00;61.19
71801;HTU21D;59647;55.838;37.292;2023-05-07T04:51:01;5.06;60.52
71801;HTU21D;59647;55.838;37.292;2023-05-07T04:53:27;5.17;60.90
71801;HTU21D;59647;55.838;37.292;2023-05-07T04:55:57;5.32;60.47
71801;HTU21D;59647;55.838;37.292;2023-05-07T04:58:25;5.38;58.35
71801;HTU21D;59647;55.838;37.292;2023-05-07T05:00:52;5.36;58.45
71801;HTU21D;59647;55.838;37.292;2023-05-07T05:03:18;5.48;59.01
71801;HTU21D;59647;55.838;37.292;2023-05-07T05:05:44;5.66;58.22
71801;HTU21D;59647;55.838;37.292;2023-05-07T05:08:11;5.79;56.84
71801;HTU21D;59647;55.838;37.292;2023-05-07T05:10:40;5.78;57.22
71801;HTU21D;59647;55.838;37.292;2023-05-07T05:13:07;5.95;57.45
71801;HTU21D;59647;55.838;37.292;2023-05-07T05:15:34;6.12;57.84
71801;HTU21D;59647;55.838;37.292;2023-05-07T05:18:01;6.25;55.74
71801;HTU21D;59647;55.838;37.292;2023-05-07T05:20:27;6.44;56.29
71801;HTU21D;59647;55.838;37.292;2023-05-07T05:22:53;6.63;53.99
71801;HTU21D;59647;55.838;37.292;2023-05-07T05:25:19;6.72;55.56
71801;HTU21D;59647;55.838;37.292;2023-05-07T05:27:46;6.91;54.25
71801;HTU21D;59647;55.838;37.292;2023-05-07T05:30:13;7.07;51.85
71801;HTU21D;59647;55.838;37.292;2023-05-07T05:32:39;7.16;49.55
71801;HTU21D;59647;55.838;37.292;2023-05-07T05:35:05;7.04;50.94
71801;HTU21D;59647;55.838;37.292;2023-05-07T05:37:32;7.01;50.62
71801;HTU21D;59647;55.838;37.292;2023-05-07T05:39:59;7.28;51.17
71801;HTU21D;59647;55.838;37.292;2023-05-07T05:42:31;7.29;49.63
71801;HTU21D;59647;55.838;37.292;2023-05-07T05:44:57;7.34;46.35
71801;HTU21D;59647;55.838;37.292;2023-05-07T05:47:24;7.54;47.25
71801;HTU21D;59647;55.838;37.292;2023-05-07T05:49:53;7.60;49.75
71801;HTU21D;59647;55.838;37.292;2023-05-07T05:52:19;7.61;46.63
71801;HTU21D;59647;55.838;37.292;2023-05-07T05:54:46;7.74;49.69
71801;HTU21D;59647;55.838;37.292;2023-05-07T05:57:12;7.96;45.55
71801;HTU21D;59647;55.838;37.292;2023-05-07T05:59:38;8.33;47.69
71801;HTU21D;59647;55.838;37.292;2023-05-07T06:02:04;8.75;47.14
71801;HTU21D;59647;55.838;37.292;2023-05-07T06:04:30;8.90;45.64
71801;HTU21D;59647;55.838;37.292;2023-05-07T06:06:57;8.55;42.54
71801;HTU21D;59647;55.838;37.292;2023-05-07T06:09:25;8.37;42.92
71801;HTU21D;59647;55.838;37.292;2023-05-07T06:11:51;8.38;45.21
71801;HTU21D;59647;55.838;37.292;2023-05-07T06:14:17;8.63;43.22
71801;HTU21D;59647;55.838;37.292;2023-05-07T06:16:43;8.89;39.96
71801;HTU21D;59647;55.838;37.292;2023-05-07T06:19:10;9.07;45.54
71801;HTU21D;59647;55.838;37.292;2023-05-07T06:21:38;8.85;43.87
71801;HTU21D;59647;55.838;37.292;2023-05-07T06:24:04;8.65;42.00
71801;HTU21D;59647;55.838;37.292;2023-05-07T06:26:30;8.60;42.04
71801;HTU21D;59647;55.838;37.292;2023-05-07T06:28:56;8.83;42.21
71801;HTU21D;59647;55.838;37.292;2023-05-07T06:31:29;9.01;40.07
71801;HTU21D;59647;55.838;37.292;2023-05-07T06:34:01;9.17;41.30
71801;HTU21D;59647;55.838;37.292;2023-05-07T06:36:33;9.32;38.26
71801;HTU21D;59647;55.838;37.292;2023-05-07T06:39:05;9.68;39.27
71801;HTU21D;59647;55.838;37.292;2023-05-07T06:41:31;9.75;38.09
71801;HTU21D;59647;55.838;37.292;2023-05-07T06:44:04;9.82;38.94
71801;HTU21D;59647;55.838;37.292;2023-05-07T06:46:36;9.74;38.74
71801;HTU21D;59647;55.838;37.292;2023-05-07T06:49:04;9.72;39.10
71801;HTU21D;59647;55.838;37.292;2023-05-07T06:51:30;10.09;38.57
71801;HTU21D;59647;55.838;37.292;2023-05-07T06:54:01;10.44;37.26
71801;HTU21D;59647;55.838;37.292;2023-05-07T06:56:27;10.82;34.87
71801;HTU21D;59647;55.838;37.292;2023-05-07T06:58:53;11.24;36.44
71801;HTU21D;59647;55.838;37.292;2023-05-07T07:01:20;10.89;32.85
71801;HTU21D;59647;55.838;37.292;2023-05-07T07:03:46;10.83;33.51
71801;HTU21D;59647;55.838;37.292;2023-05-07T07:06:15;10.70;33.15
71801;HTU21D;59647;55.838;37.292;2023-05-07T07:08:42;10.69;34.50
71801;HTU21D;59647;55.838;37.292;2023-05-07T07:11:10;10.50;32.60
71801;HTU21D;59647;55.838;37.292;2023-05-07T07:13:36;10.56;37.64
71801;HTU21D;59647;55.838;37.292;2023-05-07T07:16:03;10.67;31.24
71801;HTU21D;59647;55.838;37.292;2023-05-07T07:18:29;10.50;31.30
71801;HTU21D;59647;55.838;37.292;2023-05-07T07:20:56;10.27;32.36
71801;HTU21D;59647;55.838;37.292;2023-05-07T07:23:23;10.11;33.57
71801;HTU21D;59647;55.838;37.292;2023-05-07T07:25:49;10.63;33.49
71801;HTU21D;59647;55.838;37.292;2023-05-07T07:28:15;10.93;32.48
71801;HTU21D;59647;55.838;37.292;2023-05-07T07:30:42;11.40;30.32
71801;HTU21D;59647;55.838;37.292;2023-05-07T07:33:09;11.52;34.34
71801;HTU21D;59647;55.838;37.292;2023-05-07T07:35:37;11.49;34.84
71801;HTU21D;59647;55.838;37.292;2023-05-07T07:38:04;11.58;32.48
71801;HTU21D;59647;55.838;37.292;2023-05-07T07:40:31;11.20;30.77
71801;HTU21D;59647;55.838;37.292;2023-05-07T07:42:57;10.75;30.61
71801;HTU21D;59647;55.838;37.292;2023-05-07T07:45:23;10.50;33.57
71801;HTU21D;59647;55.838;37.292;2023-05-07T07:47:51;10.06;31.52
71801;HTU21D;59647;55.838;37.292;2023-05-07T07:50:17;9.95;31.10
71801;HTU21D;59647;55.838;37.292;2023-05-07T07:52:44;10.11;35.19
71801;HTU21D;59647;55.838;37.292;2023-05-07T07:55:14;10.34;34.31
71801;HTU21D;59647;55.838;37.292;2023-05-07T07:57:43;10.62;35.20
71801;HTU21D;59647;55.838;37.292;2023-05-07T08:00:11;10.66;34.70
71801;HTU21D;59647;55.838;37.292;2023-05-07T08:02:42;10.48;31.58
71801;HTU21D;59647;55.838;37.292;2023-05-07T08:05:10;10.58;34.32
71801;HTU21D;59647;55.838;37.292;2023-05-07T08:07:36;10.49;29.51
71801;HTU21D;59647;55.838;37.292;2023-05-07T08:10:03;10.74;30.80
71801;HTU21D;59647;55.838;37.292;2023-05-07T08:12:30;11.04;31.51
71801;HTU21D;59647;55.838;37.292;2023-05-07T08:14:56;10.98;32.46
71801;HTU21D;59647;55.838;37.292;2023-05-07T08:17:22;10.75;31.02
71801;HTU21D;59647;55.838;37.292;2023-05-07T08:19:49;11.20;29.81
71801;HTU21D;59647;55.838;37.292;2023-05-07T08:22:15;11.69;28.41
71801;HTU21D;59647;55.838;37.292;2023-05-07T08:24:43;11.62;24.57
71801;HTU21D;59647;55.838;37.292;2023-05-07T08:27:10;11.73;23.96
71801;HTU21D;59647;55.838;37.292;2023-05-07T08:29:37;11.74;29.39
71801;HTU21D;59647;55.838;37.292;2023-05-07T08:32:03;11.83;26.50
71801;HTU21D;59647;55.838;37.292;2023-05-07T08:34:29;11.79;29.71
71801;HTU21D;59647;55.838;37.292;2023-05-07T08:36:56;11.44;27.97
71801;HTU21D;59647;55.838;37.292;2023-05-07T08:39:24;11.44;27.29
71801;HTU21D;59647;55.838;37.292;2023-05-07T08:41:55;11.28;28.99
71801;HTU21D;59647;55.838;37.292;2023-05-07T08:44:26;11.44;30.61
71801;HTU21D;59647;55.838;37.292;2023-05-07T08:46:56;11.91;30.19
71801;HTU21D;59647;55.838;37.292;2023-05-07T08:49:23;11.99;31.08
71801;HTU21D;59647;55.838;37.292;2023-05-07T08:51:51;11.82;26.69
71801;HTU21D;59647;55.838;37.292;2023-05-07T08:54:18;11.86;27.45
71801;HTU21D;59647;55.838;37.292;2023-05-07T08:56:46;11.81;28.24
71801;HTU21D;59647;55.838;37.292;2023-05-07T08:59:12;12.29;28.60
71801;HTU21D;59647;55.838;37.292;2023-05-07T09:01:38;12.69;28.39
71801;HTU21D;59647;55.838;37.292;2023-05-07T09:04:05;12.82;27.57
71801;HTU21D;59647;55.838;37.292;2023-05-07T09:06:33;12.45;26.49
71801;HTU21D;59647;55.838;37.292;2023-05-07T09:09:00;12.26;25.88
71801;HTU21D;59647;55.838;37.292;2023-05-07T09:11:29;12.12;26.97
71801;HTU21D;59647;55.838;37.292;2023-05-07T09:13:59;12.02;27.46
71801;HTU21D;59647;55.838;37.292;2023-05-07T09:16:33;12.42;27.68
71801;HTU21D;59647;55.838;37.292;2023-05-07T09:19:00;12.90;27.92
71801;HTU21D;59647;55.838;37.292;2023-05-07T09:21:26;13.21;26.71
71801;HTU21D;59647;55.838;37.292;2023-05-07T09:23:55;13.05;26.61
71801;HTU21D;59647;55.838;37.292;2023-05-07T09:26:27;13.08;27.00
71801;HTU21D;59647;55.838;37.292;2023-05-07T09:28:54;12.72;23.00
71801;HTU21D;59647;55.838;37.292;2023-05-07T09:31:24;12.50;24.49
71801;HTU21D;59647;55.838;37.292;2023-05-07T09:33:54;12.42;26.20
71801;HTU21D;59647;55.838;37.292;2023-05-07T09:36:23;12.61;26.25
71801;HTU21D;59647;55.838;37.292;2023-05-07T09:38:49;13.11;26.20
71801;HTU21D;59647;55.838;37.292;2023-05-07T09:41:16;13.58;25.94
71801;HTU21D;59647;55.838;37.292;2023-05-07T09:43:54;13.58;24.17
71801;HTU21D;59647;55.838;37.292;2023-05-07T09:46:28;13.92;27.94
71801;HTU21D;59647;55.838;37.292;2023-05-07T09:49:02;13.92;24.50
71801;HTU21D;59647;55.838;37.292;2023-05-07T09:51:43;14.56;25.10
71801;HTU21D;59647;55.838;37.292;2023-05-07T09:54:11;14.88;21.43
71801;HTU21D;59647;55.838;37.292;2023-05-07T09:56:40;14.74;23.55
71801;HTU21D;59647;55.838;37.292;2023-05-07T09:59:10;15.09;22.24
71801;HTU21D;59647;55.838;37.292;2023-05-07T10:01:40;15.17;19.84
71801;HTU21D;59647;55.838;37.292;2023-05-07T10:04:06;15.24;22.27
71801;HTU21D;59647;55.838;37.292;2023-05-07T10:06:35;15.33;20.30
71801;HTU21D;59647;55.838;37.292;2023-05-07T10:09:02;15.15;23.91
71801;HTU21D;59647;55.838;37.292;2023-05-07T10:11:28;14.75;22.77
71801;HTU21D;59647;55.838;37.292;2023-05-07T10:13:54;14.73;22.40
71801;HTU21D;59647;55.838;37.292;2023-05-07T10:16:21;15.09;22.77
71801;HTU21D;59647;55.838;37.292;2023-05-07T10:18:49;15.19;22.59
71801;HTU21D;59647;55.838;37.292;2023-05-07T10:21:21;15.13;19.73
71801;HTU21D;59647;55.838;37.292;2023-05-07T10:23:57;15.49;22.28
71801;HTU21D;59647;55.838;37.292;2023-05-07T10:26:25;16.07;20.85
71801;HTU21D;59647;55.838;37.292;2023-05-07T10:28:58;16.14;18.31
71801;HTU21D;59647;55.838;37.292;2023-05-07T10:34:09;16.25;22.04
71801;HTU21D;59647;55.838;37.292;2023-05-07T10:36:37;15.99;24.65
71801;HTU21D;59647;55.838;37.292;2023-05-07T10:39:04;15.16;21.33
71801;HTU21D;59647;55.838;37.292;2023-05-07T10:41:31;15.00;22.88
71801;HTU21D;59647;55.838;37.292;2023-05-07T10:43:57;14.93;22.03
71801;HTU21D;59647;55.838;37.292;2023-05-07T10:46:29;14.95;22.52
71801;HTU21D;59647;55.838;37.292;2023-05-07T10:49:08;14.71;23.53
71801;HTU21D;59647;55.838;37.292;2023-05-07T10:52:31;14.71;22.64
71801;HTU21D;59647;55.838;37.292;2023-05-07T10:55:23;14.63;20.74
71801;HTU21D;59647;55.838;37.292;2023-05-07T11:00:49;15.63;22.31
71801;HTU21D;59647;55.838;37.292;2023-05-07T11:03:27;15.86;22.79
71801;HTU21D;59647;55.838;37.292;2023-05-07T11:06:16;15.09;19.88
71801;HTU21D;59647;55.838;37.292;2023-05-07T11:08:56;14.95;21.11
71801;HTU21D;59647;55.838;37.292;2023-05-07T11:11:54;14.82;21.69
71801;HTU21D;59647;55.838;37.292;2023-05-07T11:14:44;14.39;20.15
71801;HTU21D;59647;55.838;37.292;2023-05-07T11:17:18;14.45;22.01
71801;HTU21D;59647;55.838;37.292;2023-05-07T11:19:54;14.63;21.82
71801;HTU21D;59647;55.838;37.292;2023-05-07T11:22:44;14.71;21.43
71801;HTU21D;59647;55.838;37.292;2023-05-07T11:25:45;14.73;22.48
71801;HTU21D;59647;55.838;37.292;2023-05-07T11:28:17;14.69;22.13
71801;HTU21D;59647;55.838;37.292;2023-05-07T11:30:50;14.63;19.57
71801;HTU21D;59647;55.838;37.292;2023-05-07T11:33:19;15.10;21.63
71801;HTU21D;59647;55.838;37.292;2023-05-07T11:35:47;15.54;18.88
71801;HTU21D;59647;55.838;37.292;2023-05-07T11:38:15;15.52;20.87
71801;HTU21D;59647;55.838;37.292;2023-05-07T11:40:50;15.55;20.39
71801;HTU21D;59647;55.838;37.292;2023-05-07T11:43:16;15.51;22.34
71801;HTU21D;59647;55.838;37.292;2023-05-07T11:45:42;15.46;20.03
71801;HTU21D;59647;55.838;37.292;2023-05-07T11:48:08;15.12;21.14
71801;HTU21D;59647;55.838;37.292;2023-05-07T11:50:34;15.09;21.34
71801;HTU21D;59647;55.838;37.292;2023-05-07T11:53:00;14.58;23.14
71801;HTU21D;59647;55.838;37.292;2023-05-07T11:55:26;13.92;23.87
71801;HTU21D;59647;55.838;37.292;2023-05-07T11:57:52;13.45;23.78
71801;HTU21D;59647;55.838;37.292;2023-05-07T12:00:18;13.14;23.30
71801;HTU21D;59647;55.838;37.292;2023-05-07T12:02:45;12.70;21.85
71801;HTU21D;59647;55.838;37.292;2023-05-07T12:05:11;12.44;23.79
71801;HTU21D;59647;55.838;37.292;2023-05-07T12:07:37;12.55;24.45
71801;HTU21D;59647;55.838;37.292;2023-05-07T12:10:07;12.53;23.25
71801;HTU21D;59647;55.838;37.292;2023-05-07T12:12:39;12.55;24.55
71801;HTU21D;59647;55.838;37.292;2023-05-07T12:15:08;12.70;25.05
71801;HTU21D;59647;55.838;37.292;2023-05-07T12:17:34;12.42;24.40
71801;HTU21D;59647;55.838;37.292;2023-05-07T12:20:01;12.23;25.00
71801;HTU21D;59647;55.838;37.292;2023-05-07T12:22:31;12.04;23.90
71801;HTU21D;59647;55.838;37.292;2023-05-07T12:24:57;12.45;23.61
71801;HTU21D;59647;55.838;37.292;2023-05-07T12:27:25;13.18;24.69
71801;HTU21D;59647;55.838;37.292;2023-05-07T12:29:52;13.79;23.27
71801;HTU21D;59647;55.838;37.292;2023-05-07T12:32:20;14.13;23.13
71801;HTU21D;59647;55.838;37.292;2023-05-07T12:34:49;14.33;23.26
71801;HTU21D;59647;55.838;37.292;2023-05-07T12:37:16;14.44;22.12
71801;HTU21D;59647;55.838;37.292;2023-05-07T12:39:48;14.47;22.66
71801;HTU21D;59647;55.838;37.292;2023-05-07T12:42:16;14.43;22.79
71801;HTU21D;59647;55.838;37.292;2023-05-07T12:44:45;14.36;21.72
71801;HTU21D;59647;55.838;37.292;2023-05-07T12:47:12;14.40;23.19
71801;HTU21D;59647;55.838;37.292;2023-05-07T12:49:38;14.68;22.53
71801;HTU21D;59647;55.838;37.292;2023-05-07T12:52:05;14.99;23.30
71801;HTU21D;59647;55.838;37.292;2023-05-07T12:54:34;15.21;22.14
71801;HTU21D;59647;55.838;37.292;2023-05-07T12:57:05;15.42;20.87
71801;HTU21D;59647;55.838;37.292;2023-05-07T12:59:36;15.36;19.97
71801;HTU21D;59647;55.838;37.292;2023-05-07T13:02:02;15.27;20.02
71801;HTU21D;59647;55.838;37.292;2023-05-07T13:04:28;15.29;21.73
71801;HTU21D;59647;55.838;37.292;2023-05-07T13:06:54;15.78;19.88
71801;HTU21D;59647;55.838;37.292;2023-05-07T13:09:20;15.87;17.12
71801;HTU21D;59647;55.838;37.292;2023-05-07T13:11:46;15.54;18.64
71801;HTU21D;59647;55.838;37.292;2023-05-07T13:14:12;15.52;19.99
71801;HTU21D;59647;55.838;37.292;2023-05-07T13:16:38;15.54;21.15
71801;HTU21D;59647;55.838;37.292;2023-05-07T13:19:04;15.45;20.37
71801;HTU21D;59647;55.838;37.292;2023-05-07T13:21:30;15.46;21.80
71801;HTU21D;59647;55.838;37.292;2023-05-07T13:23:58;14.95;19.21
71801;HTU21D;59647;55.838;37.292;2023-05-07T13:26:25;14.88;20.54
71801;HTU21D;59647;55.838;37.292;2023-05-07T13:28:52;14.97;20.60
71801;HTU21D;59647;55.838;37.292;2023-05-07T13:31:18;15.11;20.08
71801;HTU21D;59647;55.838;37.292;2023-05-07T13:33:47;15.41;20.24
71801;HTU21D;59647;55.838;37.292;2023-05-07T13:36:13;15.69;20.20
71801;HTU21D;59647;55.838;37.292;2023-05-07T13:38:39;15.82;17.80
71801;HTU21D;59647;55.838;37.292;2023-05-07T13:41:05;15.69;19.21
71801;HTU21D;59647;55.838;37.292;2023-05-07T13:44:11;15.63;18.02
71801;HTU21D;59647;55.838;37.292;2023-05-07T13:46:32;16.02;18.99
71801;HTU21D;59647;55.838;37.292;2023-05-07T13:48:57;16.29;19.38
71801;HTU21D;59647;55.838;37.292;2023-05-07T13:51:23;16.79;19.62
71801;HTU21D;59647;55.838;37.292;2023-05-07T13:53:49;17.14;19.09
71801;HTU21D;59647;55.838;37.292;2023-05-07T13:56:15;17.34;17.81
71801;HTU21D;59647;55.838;37.292;2023-05-07T13:58:41;17.35;17.44
71801;HTU21D;59647;55.838;37.292;2023-05-07T14:01:07;17.41;17.04
71801;HTU21D;59647;55.838;37.292;2023-05-07T14:03:33;17.05;16.61
71801;HTU21D;59647;55.838;37.292;2023-05-07T14:06:00;17.00;18.51
71801;HTU21D;59647;55.838;37.292;2023-05-07T14:08:27;17.14;16.99
71801;HTU21D;59647;55.838;37.292;2023-05-07T14:10:53;17.14;19.25
71801;HTU21D;59647;55.838;37.292;2023-05-07T14:13:19;16.93;16.73
71801;HTU21D;59647;55.838;37.292;2023-05-07T14:15:45;16.43;17.09
71801;HTU21D;59647;55.838;37.292;2023-05-07T14:18:12;16.15;18.67
71801;HTU21D;59647;55.838;37.292;2023-05-07T14:20:38;15.93;17.25
71801;HTU21D;59647;55.838;37.292;2023-05-07T14:23:04;15.67;18.31
71801;HTU21D;59647;55.838;37.292;2023-05-07T14:25:30;15.45;18.63
71801;HTU21D;59647;55.838;37.292;2023-05-07T14:27:56;15.29;20.66
71801;HTU21D;59647;55.838;37.292;2023-05-07T14:30:22;14.97;19.60
71801;HTU21D;59647;55.838;37.292;2023-05-07T14:32:50;14.77;19.37
71801;HTU21D;59647;55.838;37.292;2023-05-07T14:35:16;14.56;19.90
71801;HTU21D;59647;55.838;37.292;2023-05-07T14:37:43;14.51;20.19
71801;HTU21D;59647;55.838;37.292;2023-05-07T14:40:09;14.40;20.15
71801;HTU21D;59647;55.838;37.292;2023-05-07T14:42:35;14.40;21.15
71801;HTU21D;59647;55.838;37.292;2023-05-07T14:45:02;14.34;19.41
71801;HTU21D;59647;55.838;37.292;2023-05-07T14:47:31;14.10;19.86
71801;HTU21D;59647;55.838;37.292;2023-05-07T14:49:57;13.93;20.59
71801;HTU21D;59647;55.838;37.292;2023-05-07T14:52:24;13.85;21.41
71801;HTU21D;59647;55.838;37.292;2023-05-07T14:54:52;13.89;21.29
71801;HTU21D;59647;55.838;37.292;2023-05-07T14:57:18;13.94;21.95
71801;HTU21D;59647;55.838;37.292;2023-05-07T14:59:45;14.01;21.56
71801;HTU21D;59647;55.838;37.292;2023-05-07T15:02:11;13.96;20.40
71801;HTU21D;59647;55.838;37.292;2023-05-07T15:04:38;13.96;21.08
71801;HTU21D;59647;55.838;37.292;2023-05-07T15:07:05;14.00;21.40
71801;HTU21D;59647;55.838;37.292;2023-05-07T15:09:31;14.03;21.08
71801;HTU21D;59647;55.838;37.292;2023-05-07T15:11:57;13.95;21.07
71801;HTU21D;59647;55.838;37.292;2023-05-07T15:14:24;13.85;21.05
71801;HTU21D;59647;55.838;37.292;2023-05-07T15:16:50;13.73;21.17
71801;HTU21D;59647;55.838;37.292;2023-05-07T15:19:16;13.63;21.84